Time;durP1;ratioP1;P1;durP2;ratioP2;P2;SDS_P1;SDS_P2;PMS_P1;PMS_P2;Temp;Humidity;BMP_temperature;BMP_pressure;BME280_temperature;BME280_humidity;BME280_pressure;Samples;Min_cycle;Max_cycle;Signal;HPM_P1;HPM_P2
2023/10/26 00:02:07;;;;;;;;;;;10.20;99.90;;;;;;5113366;28;20092;-32
2023/10/26 00:04:33;;;;;;;;;;;10.20;99.90;;;;;;5093835;28;19928;-32
2023/10/26 00:07:00;;;;;;;;;;;10.10;99.90;;;;;;5090060;28;19958;-31
2023/10/26 00:09:27;;;;;;;;;;;10.10;99.90;;;;;;5094619;28;19945;-32
2023/10/26 00:11:55;;;;;;;;;;;10.10;99.90;;;;;;5094825;28;20012;-32
2023/10/26 00:14:22;;;;;;;;;;;10.10;99.90;;;;;;5096367;28;20342;-32
2023/10/26 00:16:48;;;;;;;;;;;10.10;99.90;;;;;;5094400;28;20005;-31
2023/10/26 00:19:15;;;;;;;;;;;10.10;99.90;;;;;;5094791;28;19965;-31
2023/10/26 00:21:41;;;;;;;;;;;10.10;99.90;;;;;;5112321;28;20056;-33
2023/10/26 00:24:08;;;;;;;;;;;10.10;99.90;;;;;;5095228;28;19978;-33
2023/10/26 00:26:35;;;;;;;;;;;10.10;99.90;;;;;;5094917;28;19973;-32
2023/10/26 00:29:03;;;;;;;;;;;10.10;99.90;;;;;;5094558;28;20636;-32
2023/10/26 00:31:29;;;;;;;;;;;10.10;99.90;;;;;;5094757;28;19976;-32
2023/10/26 00:33:56;;;;;;;;;;;10.00;99.90;;;;;;5094722;28;19943;-31
2023/10/26 00:36:23;;;;;;;;;;;10.10;99.90;;;;;;5113407;28;20375;-32
2023/10/26 00:38:49;;;;;;;;;;;10.10;99.90;;;;;;5093976;28;19924;-32
2023/10/26 00:41:16;;;;;;;;;;;10.00;99.90;;;;;;5112750;28;19963;-32
2023/10/26 00:43:43;;;;;;;;;;;10.00;99.90;;;;;;5094242;28;19932;-32
2023/10/26 00:46:11;;;;;;;;;;;10.10;99.90;;;;;;5112096;28;20441;-31
2023/10/26 00:48:38;;;;;;;;;;;10.00;99.90;;;;;;5095037;28;20054;-31
2023/10/26 00:51:06;;;;;;;;;;;10.00;99.90;;;;;;5091715;28;20278;-31
2023/10/26 00:53:33;;;;;;;;;;;10.00;99.90;;;;;;5094962;28;19931;-31
2023/10/26 00:55:59;;;;;;;;;;;10.00;99.90;;;;;;5101869;28;19939;-31
2023/10/26 00:58:26;;;;;;;;;;;10.00;99.90;;;;;;5112498;28;19924;-32
2023/10/26 01:00:53;;;;;;;;;;;10.00;99.90;;;;;;5093082;28;19931;-31
2023/10/26 01:03:21;;;;;;;;;;;10.00;99.90;;;;;;5112434;28;20337;-31
2023/10/26 01:05:47;;;;;;;;;;;10.00;99.90;;;;;;5093244;28;20478;-32
2023/10/26 01:08:14;;;;;;;;;;;10.00;99.90;;;;;;5111816;28;20003;-32
2023/10/26 01:10:41;;;;;;;;;;;9.90;99.90;;;;;;5111891;28;19970;-31
2023/10/26 01:13:07;;;;;;;;;;;9.90;99.90;;;;;;5111745;28;19932;-31
2023/10/26 01:15:35;;;;;;;;;;;9.90;99.90;;;;;;5112703;28;19958;-32
2023/10/26 01:18:02;;;;;;;;;;;9.90;99.90;;;;;;5111917;28;19924;-31
2023/10/26 01:20:30;;;;;;;;;;;9.90;99.90;;;;;;5108721;28;19924;-32
2023/10/26 01:22:59;;;;;;;;;;;9.90;99.90;;;;;;5083955;28;19969;-32
2023/10/26 01:25:25;;;;;;;;;;;9.90;99.90;;;;;;5093606;28;19923;-32
2023/10/26 01:27:52;;;;;;;;;;;9.90;99.90;;;;;;5111677;28;20631;-32
2023/10/26 01:30:18;;;;;;;;;;;9.90;99.90;;;;;;5112436;28;19982;-32
2023/10/26 01:32:45;;;;;;;;;;;9.90;99.90;;;;;;5111786;28;19991;-32
2023/10/26 01:35:12;;;;;;;;;;;9.90;99.90;;;;;;5111762;28;19991;-31
2023/10/26 01:37:39;;;;;;;;;;;9.90;99.90;;;;;;5093348;28;20433;-32
2023/10/26 01:40:08;;;;;;;;;;;9.90;99.90;;;;;;5111523;28;19924;-31
2023/10/26 01:42:35;;;;;;;;;;;9.90;99.90;;;;;;5094759;28;19978;-31
2023/10/26 01:45:02;;;;;;;;;;;9.80;99.90;;;;;;5111290;28;19924;-32
2023/10/26 01:47:29;;;;;;;;;;;9.80;99.90;;;;;;5093369;28;19924;-32
2023/10/26 01:49:55;;;;;;;;;;;9.80;99.90;;;;;;5092906;28;20390;-31
2023/10/26 01:52:22;;;;;;;;;;;9.80;99.90;;;;;;5093036;28;20306;-31
2023/10/26 01:54:49;;;;;;;;;;;9.80;99.90;;;;;;5112115;28;20423;-32
2023/10/26 01:57:17;;;;;;;;;;;9.80;99.90;;;;;;5092929;28;19930;-31
2023/10/26 01:59:44;;;;;;;;;;;9.80;99.90;;;;;;5093288;28;19927;-32
2023/10/26 02:02:10;;;;;;;;;;;9.80;99.90;;;;;;5093245;28;20008;-32
2023/10/26 02:04:37;;;;;;;;;;;9.80;99.90;;;;;;5111066;28;19928;-32
2023/10/26 02:07:03;;;;;;;;;;;9.80;99.90;;;;;;5094698;28;20374;-32
2023/10/26 02:09:30;;;;;;;;;;;9.80;99.90;;;;;;5111203;28;19986;-32
2023/10/26 02:11:57;;;;;;;;;;;9.80;99.90;;;;;;5093308;28;19939;-31
2023/10/26 02:14:25;;;;;;;;;;;9.80;99.90;;;;;;5093843;28;20348;-31
2023/10/26 02:16:51;;;;;;;;;;;9.80;99.90;;;;;;5093210;28;19973;-32
2023/10/26 02:19:18;;;;;;;;;;;9.80;99.90;;;;;;5092688;28;19931;-32
2023/10/26 02:21:44;;;;;;;;;;;9.80;99.90;;;;;;5093614;28;20463;-33
2023/10/26 02:24:11;;;;;;;;;;;9.80;99.90;;;;;;5110881;28;19923;-33
2023/10/26 02:26:38;;;;;;;;;;;9.80;99.90;;;;;;5095621;28;19962;-31
2023/10/26 02:29:04;;;;;;;;;;;9.80;99.90;;;;;;5097540;28;19969;-33
2023/10/26 02:31:32;;;;;;;;;;;9.90;99.90;;;;;;5116188;28;19924;-32
2023/10/26 02:33:59;;;;;;;;;;;9.80;99.90;;;;;;5114376;28;19988;-32
2023/10/26 02:36:26;;;;;;;;;;;9.80;99.90;;;;;;5115134;28;19985;-31
2023/10/26 02:38:53;;;;;;;;;;;9.80;99.90;;;;;;5097309;28;19979;-31
2023/10/26 02:41:19;;;;;;;;;;;9.80;99.90;;;;;;5096932;28;20335;-32
2023/10/26 02:43:46;;;;;;;;;;;9.80;99.90;;;;;;5096906;28;19923;-31
2023/10/26 02:46:13;;;;;;;;;;;9.80;99.90;;;;;;5114923;28;19936;-32
2023/10/26 02:48:40;;;;;;;;;;;9.80;99.90;;;;;;5096093;28;20375;-33
2023/10/26 02:51:07;;;;;;;;;;;9.80;99.90;;;;;;5115465;28;19938;-32
2023/10/26 02:53:34;;;;;;;;;;;9.80;99.90;;;;;;5095745;28;20376;-32
2023/10/26 02:56:00;;;;;;;;;;;9.80;99.90;;;;;;5114533;28;19924;-31
2023/10/26 02:58:27;;;;;;;;;;;9.80;99.90;;;;;;5114520;28;19931;-32
2023/10/26 03:00:54;;;;;;;;;;;9.80;99.90;;;;;;5096170;28;19924;-32
2023/10/26 03:03:20;;;;;;;;;;;9.80;99.90;;;;;;5097608;28;19930;-31
2023/10/26 03:05:48;;;;;;;;;;;9.80;99.90;;;;;;5096439;28;20014;-32
2023/10/26 03:08:15;;;;;;;;;;;9.80;99.90;;;;;;5086842;28;19962;-32
2023/10/26 03:10:42;;;;;;;;;;;9.80;99.90;;;;;;5112172;28;19982;-31
2023/10/26 03:13:08;;;;;;;;;;;9.70;99.90;;;;;;5096725;28;20337;-33
2023/10/26 03:15:35;;;;;;;;;;;9.80;99.90;;;;;;5114423;27;19954;-31
2023/10/26 03:18:02;;;;;;;;;;;9.80;99.90;;;;;;5113595;28;19924;-31
2023/10/26 03:20:28;;;;;;;;;;;9.80;99.90;;;;;;5096461;28;19923;-33
2023/10/26 03:22:56;;;;;;;;;;;9.70;99.90;;;;;;5095421;28;19969;-31
2023/10/26 03:25:23;;;;;;;;;;;9.70;99.90;;;;;;5113839;28;19991;-32
2023/10/26 03:27:49;;;;;;;;;;;9.70;99.90;;;;;;5096319;28;19992;-32
2023/10/26 03:30:17;;;;;;;;;;;9.70;99.90;;;;;;5094784;28;19985;-33
2023/10/26 03:32:44;;;;;;;;;;;9.70;99.90;;;;;;5114075;27;19924;-31
2023/10/26 03:35:10;;;;;;;;;;;9.70;99.90;;;;;;5094845;28;19924;-32
2023/10/26 03:37:37;;;;;;;;;;;9.70;99.90;;;;;;5095212;28;19971;-32
2023/10/26 03:40:06;;;;;;;;;;;9.70;99.90;;;;;;5114073;28;20310;-32
2023/10/26 03:42:32;;;;;;;;;;;9.70;99.90;;;;;;5114122;28;19924;-32
2023/10/26 03:44:59;;;;;;;;;;;9.80;99.90;;;;;;5091596;28;20460;-32
2023/10/26 03:47:26;;;;;;;;;;;9.70;99.90;;;;;;5109023;28;20371;-32
2023/10/26 03:49:52;;;;;;;;;;;9.70;99.90;;;;;;5108652;28;20351;-31
2023/10/26 03:52:19;;;;;;;;;;;9.80;99.90;;;;;;5113265;28;19958;-33
2023/10/26 03:54:46;;;;;;;;;;;9.70;99.90;;;;;;5092886;28;19931;-32
2023/10/26 03:57:14;;;;;;;;;;;9.70;99.90;;;;;;5090151;28;19981;-32
2023/10/26 03:59:41;;;;;;;;;;;9.70;99.90;;;;;;5094860;28;19958;-32
2023/10/26 04:02:08;;;;;;;;;;;9.70;99.90;;;;;;5094967;28;20039;-31
2023/10/26 04:04:34;;;;;;;;;;;9.80;99.90;;;;;;5094130;28;20346;-32
2023/10/26 04:07:01;;;;;;;;;;;9.80;99.90;;;;;;5094867;28;19935;-31
2023/10/26 04:09:27;;;;;;;;;;;9.70;99.90;;;;;;5108421;28;20001;-32
2023/10/26 04:11:54;;;;;;;;;;;9.80;99.90;;;;;;5110869;28;19924;-32
2023/10/26 04:14:22;;;;;;;;;;;9.70;99.90;;;;;;5112582;28;19924;-32
2023/10/26 04:16:50;;;;;;;;;;;9.70;99.90;;;;;;5111334;28;20479;-31
2023/10/26 04:19:16;;;;;;;;;;;9.70;99.90;;;;;;5112235;28;19930;-31
2023/10/26 04:21:43;;;;;;;;;;;9.70;99.90;;;;;;5095704;28;19972;-31
2023/10/26 04:24:10;;;;;;;;;;;9.70;99.90;;;;;;5095955;28;19947;-32
2023/10/26 04:26:36;;;;;;;;;;;9.70;99.90;;;;;;5092709;28;19983;-32
2023/10/26 04:29:05;;;;;;;;;;;9.80;99.90;;;;;;5114179;28;19924;-31
2023/10/26 04:31:33;;;;;;;;;;;9.70;99.90;;;;;;5095031;28;19990;-31
2023/10/26 04:33:59;;;;;;;;;;;9.70;99.90;;;;;;5095956;28;20449;-31
2023/10/26 04:36:26;;;;;;;;;;;9.70;99.90;;;;;;5093225;28;19939;-32
2023/10/26 04:38:53;;;;;;;;;;;9.70;99.90;;;;;;5110592;28;19966;-33
2023/10/26 04:41:19;;;;;;;;;;;9.70;99.90;;;;;;5093409;28;20369;-32
2023/10/26 04:43:46;;;;;;;;;;;9.70;99.90;;;;;;5112767;28;20337;-31
2023/10/26 04:46:12;;;;;;;;;;;9.70;99.90;;;;;;5095549;28;19964;-32
2023/10/26 04:48:40;;;;;;;;;;;9.70;99.90;;;;;;5111426;28;19927;-31
2023/10/26 04:51:08;;;;;;;;;;;9.70;99.90;;;;;;5112532;28;19924;-31
2023/10/26 04:53:35;;;;;;;;;;;9.80;99.90;;;;;;5094588;28;19927;-31
2023/10/26 04:56:02;;;;;;;;;;;9.70;99.90;;;;;;5094639;28;19932;-31
2023/10/26 04:58:29;;;;;;;;;;;9.70;99.90;;;;;;5113277;28;19931;-32
2023/10/26 05:00:56;;;;;;;;;;;9.70;99.90;;;;;;5094298;28;19924;-31
2023/10/26 05:03:22;;;;;;;;;;;9.70;99.90;;;;;;5094268;28;20329;-32
2023/10/26 05:05:50;;;;;;;;;;;9.70;99.90;;;;;;5112166;28;19924;-32
2023/10/26 05:08:17;;;;;;;;;;;9.70;99.90;;;;;;5088867;28;19973;-32
2023/10/26 05:10:43;;;;;;;;;;;9.70;99.90;;;;;;5095274;28;20390;-32
2023/10/26 05:13:10;;;;;;;;;;;9.60;99.90;;;;;;5112086;28;19965;-33
2023/10/26 05:15:37;;;;;;;;;;;9.60;99.90;;;;;;5111922;28;19960;-32
2023/10/26 05:18:04;;;;;;;;;;;9.60;99.90;;;;;;5093741;28;19954;-32
2023/10/26 05:20:32;;;;;;;;;;;9.50;99.90;;;;;;5093804;28;19960;-32
2023/10/26 05:23:01;;;;;;;;;;;9.50;99.90;;;;;;5111910;28;20329;-33
2023/10/26 05:25:28;;;;;;;;;;;9.50;99.90;;;;;;5094979;28;19924;-32
2023/10/26 05:27:55;;;;;;;;;;;9.40;99.90;;;;;;5094348;28;19924;-32
2023/10/26 05:30:22;;;;;;;;;;;9.40;99.90;;;;;;5093178;28;19928;-32
2023/10/26 05:32:48;;;;;;;;;;;9.30;99.90;;;;;;5090698;28;19974;-32
2023/10/26 05:35:15;;;;;;;;;;;9.30;99.90;;;;;;5088563;28;20004;-31
2023/10/26 05:37:41;;;;;;;;;;;9.30;99.90;;;;;;5083282;28;19935;-32
2023/10/26 05:40:10;;;;;;;;;;;9.20;99.90;;;;;;5092281;28;19940;-32
2023/10/26 05:42:37;;;;;;;;;;;9.20;99.90;;;;;;5091838;28;19935;-32
2023/10/26 05:45:04;;;;;;;;;;;9.20;99.90;;;;;;5108464;28;20377;-32
2023/10/26 05:47:31;;;;;;;;;;;9.10;99.90;;;;;;5092629;28;19972;-32
2023/10/26 05:49:57;;;;;;;;;;;9.10;99.90;;;;;;5109351;28;19927;-33
2023/10/26 05:52:24;;;;;;;;;;;9.10;99.90;;;;;;5111119;28;19977;-32
2023/10/26 05:54:51;;;;;;;;;;;9.00;99.90;;;;;;5110325;28;19985;-32
2023/10/26 05:57:19;;;;;;;;;;;9.00;99.90;;;;;;5109918;28;19928;-32
2023/10/26 05:59:46;;;;;;;;;;;9.00;99.90;;;;;;5110689;28;19936;-33
2023/10/26 06:02:13;;;;;;;;;;;9.00;99.90;;;;;;5096344;28;19932;-32
2023/10/26 06:04:39;;;;;;;;;;;9.00;99.90;;;;;;5114190;28;19969;-32
2023/10/26 06:07:06;;;;;;;;;;;9.00;99.90;;;;;;5095862;28;20321;-32
2023/10/26 06:09:32;;;;;;;;;;;9.00;99.90;;;;;;5112652;28;19987;-31
2023/10/26 06:11:59;;;;;;;;;;;9.00;99.90;;;;;;5114219;28;19957;-31
2023/10/26 06:14:27;;;;;;;;;;;9.00;99.90;;;;;;5095786;28;19965;-31
2023/10/26 06:16:54;;;;;;;;;;;9.00;99.90;;;;;;5114103;28;19928;-31
2023/10/26 06:19:20;;;;;;;;;;;8.90;99.90;;;;;;5113473;28;20016;-31
2023/10/26 06:21:47;;;;;;;;;;;9.00;99.90;;;;;;5094967;28;20355;-31
2023/10/26 06:24:14;;;;;;;;;;;8.90;99.90;;;;;;5112990;28;20369;-31
2023/10/26 06:26:40;;;;;;;;;;;8.90;99.90;;;;;;5111887;28;19935;-32
2023/10/26 06:29:07;;;;;;;;;;;8.90;99.90;;;;;;5095284;28;19924;-31
2023/10/26 06:31:35;;;;;;;;;;;8.90;99.90;;;;;;5095581;28;20048;-33
2023/10/26 06:34:02;;;;;;;;;;;8.90;99.90;;;;;;5094743;28;20054;-31
2023/10/26 06:36:28;;;;;;;;;;;8.90;99.90;;;;;;5113602;28;19931;-32
2023/10/26 06:38:56;;;;;;;;;;;8.90;99.90;;;;;;5112450;28;20028;-32
2023/10/26 06:41:23;;;;;;;;;;;8.90;99.90;;;;;;5094659;28;19942;-32
2023/10/26 06:43:49;;;;;;;;;;;8.90;99.90;;;;;;5094437;28;20009;-31
2023/10/26 06:46:16;;;;;;;;;;;8.90;99.90;;;;;;5093821;28;19924;-32
2023/10/26 06:48:44;;;;;;;;;;;8.90;99.90;;;;;;5094457;28;20355;-31
2023/10/26 06:51:10;;;;;;;;;;;9.00;99.90;;;;;;5110679;28;19977;-31
2023/10/26 06:53:37;;;;;;;;;;;9.00;99.90;;;;;;5095570;28;19967;-31
2023/10/26 06:56:11;;;;;;;;;;;9.00;99.90;;;;;;5094855;28;20403;-32
2023/10/26 06:58:37;;;;;;;;;;;9.00;99.90;;;;;;5086848;28;19961;-31
2023/10/26 07:01:05;;;;;;;;;;;9.00;99.90;;;;;;5113285;28;19924;-31
2023/10/26 07:03:32;;;;;;;;;;;9.00;99.90;;;;;;5112982;28;19958;-31
2023/10/26 07:06:02;;;;;;;;;;;9.10;99.90;;;;;;5095808;28;20421;-31
2023/10/26 07:08:28;;;;;;;;;;;9.10;99.90;;;;;;5094565;28;19934;-32
2023/10/26 07:10:55;;;;;;;;;;;9.10;99.90;;;;;;5090138;28;19925;-32
2023/10/26 07:13:22;;;;;;;;;;;9.20;99.90;;;;;;5081710;28;20449;-31
2023/10/26 07:15:49;;;;;;;;;;;9.20;99.90;;;;;;5090338;28;19987;-31
2023/10/26 07:18:18;;;;;;;;;;;9.20;99.90;;;;;;5085953;28;21060;-32
2023/10/26 07:20:44;;;;;;;;;;;9.30;99.90;;;;;;5105573;28;19935;-31
2023/10/26 07:23:12;;;;;;;;;;;9.30;99.90;;;;;;5112096;28;19928;-33
2023/10/26 07:25:39;;;;;;;;;;;9.30;99.90;;;;;;5111342;28;20388;-32
2023/10/26 07:28:06;;;;;;;;;;;9.40;99.90;;;;;;5093373;28;19924;-31
2023/10/26 07:30:32;;;;;;;;;;;9.40;99.90;;;;;;5093674;28;19949;-33
2023/10/26 07:32:59;;;;;;;;;;;9.40;99.90;;;;;;5111702;28;19980;-33
2023/10/26 07:35:26;;;;;;;;;;;9.50;99.90;;;;;;5113434;28;19987;-33
2023/10/26 07:37:52;;;;;;;;;;;9.50;99.90;;;;;;5094614;28;19966;-31
2023/10/26 07:40:20;;;;;;;;;;;9.50;99.90;;;;;;5091731;28;20398;-31
2023/10/26 07:42:47;;;;;;;;;;;9.50;99.90;;;;;;5094095;28;19924;-33
2023/10/26 07:45:14;;;;;;;;;;;9.60;99.90;;;;;;5112195;28;19999;-32
2023/10/26 07:47:40;;;;;;;;;;;9.60;99.90;;;;;;5094614;28;19927;-32
2023/10/26 07:50:08;;;;;;;;;;;9.70;99.90;;;;;;5095259;28;20398;-32
2023/10/26 07:52:34;;;;;;;;;;;9.70;99.90;;;;;;5113108;28;19966;-33
2023/10/26 07:55:02;;;;;;;;;;;9.70;99.90;;;;;;5111246;28;19984;-32
2023/10/26 07:57:31;;;;;;;;;;;9.70;99.90;;;;;;5094838;28;19923;-32
2023/10/26 07:59:57;;;;;;;;;;;9.80;99.90;;;;;;5090986;28;20086;-32
2023/10/26 08:02:24;;;;;;;;;;;9.80;99.90;;;;;;5074079;28;20330;-32
2023/10/26 08:04:51;;;;;;;;;;;9.90;99.90;;;;;;5091658;28;20360;-32
2023/10/26 08:07:17;;;;;;;;;;;10.00;99.90;;;;;;5113026;28;19950;-32
2023/10/26 08:09:44;;;;;;;;;;;9.90;99.90;;;;;;5093828;28;19966;-31
2023/10/26 08:12:11;;;;;;;;;;;10.00;99.90;;;;;;5112603;28;19968;-32
2023/10/26 08:14:39;;;;;;;;;;;10.00;99.90;;;;;;5094717;28;19931;-32
2023/10/26 08:17:06;;;;;;;;;;;10.00;99.90;;;;;;5094658;28;19942;-32
2023/10/26 08:19:32;;;;;;;;;;;10.10;99.90;;;;;;5112646;28;20027;-32
2023/10/26 08:21:59;;;;;;;;;;;10.10;99.90;;;;;;5110914;28;19966;-31
2023/10/26 08:24:27;;;;;;;;;;;10.10;99.90;;;;;;5112826;28;19931;-32
2023/10/26 08:26:53;;;;;;;;;;;10.20;99.90;;;;;;5094031;28;20379;-32
2023/10/26 08:29:20;;;;;;;;;;;10.20;99.90;;;;;;5094315;28;19953;-31
2023/10/26 08:31:48;;;;;;;;;;;10.20;99.90;;;;;;5112790;28;19962;-32
2023/10/26 08:34:15;;;;;;;;;;;10.30;99.90;;;;;;5094397;28;19966;-31
2023/10/26 08:36:41;;;;;;;;;;;10.30;99.90;;;;;;5093440;28;19944;-31
2023/10/26 08:39:08;;;;;;;;;;;10.30;99.90;;;;;;5092742;28;19977;-31
2023/10/26 08:41:35;;;;;;;;;;;10.40;99.90;;;;;;5081171;28;19940;-32
2023/10/26 08:44:03;;;;;;;;;;;10.40;99.90;;;;;;5091836;28;19924;-32
2023/10/26 08:46:30;;;;;;;;;;;10.50;99.90;;;;;;5091467;28;19951;-31
2023/10/26 08:48:59;;;;;;;;;;;10.50;99.90;;;;;;5092730;28;19984;-32
2023/10/26 08:51:26;;;;;;;;;;;10.60;99.90;;;;;;5093365;28;19957;-31
2023/10/26 08:53:53;;;;;;;;;;;10.60;99.90;;;;;;5111949;28;19992;-32
2023/10/26 08:56:21;;;;;;;;;;;10.60;99.90;;;;;;5112074;28;20168;-32
2023/10/26 08:58:48;;;;;;;;;;;10.60;99.90;;;;;;5093693;28;20430;-31
2023/10/26 09:01:15;;;;;;;;;;;10.70;99.90;;;;;;5092814;28;19954;-33
2023/10/26 09:03:42;;;;;;;;;;;10.70;99.90;;;;;;5093893;28;19973;-31
2023/10/26 09:06:10;;;;;;;;;;;10.70;99.90;;;;;;5110743;28;20034;-34
2023/10/26 09:08:37;;;;;;;;;;;10.80;99.90;;;;;;5093848;28;19962;-32
2023/10/26 09:11:10;;;;;;;;;;;10.80;99.90;;;;;;5093538;28;19951;-32
2023/10/26 09:13:37;;;;;;;;;;;10.90;99.90;;;;;;5092378;28;19928;-32
2023/10/26 09:16:04;;;;;;;;;;;11.00;99.90;;;;;;5111709;28;20347;-32
2023/10/26 09:18:33;;;;;;;;;;;11.00;99.90;;;;;;5092928;28;19978;-32
2023/10/26 09:21:01;;;;;;;;;;;11.00;99.90;;;;;;5085300;28;20004;-31
2023/10/26 09:23:29;;;;;;;;;;;11.10;99.90;;;;;;5073744;28;19928;-33
2023/10/26 09:25:56;;;;;;;;;;;11.10;99.90;;;;;;5091331;28;20392;-32
2023/10/26 09:28:23;;;;;;;;;;;11.20;99.90;;;;;;5107761;28;20124;-32
2023/10/26 09:30:49;;;;;;;;;;;11.30;99.90;;;;;;5111560;28;19962;-32
2023/10/26 09:33:22;;;;;;;;;;;11.40;99.90;;;;;;5111727;28;19928;-32
2023/10/26 09:35:49;;;;;;;;;;;11.40;99.90;;;;;;5093003;28;19923;-32
2023/10/26 09:38:17;;;;;;;;;;;11.40;99.90;;;;;;5092947;28;19923;-32
2023/10/26 09:40:45;;;;;;;;;;;11.40;99.90;;;;;;5091816;28;19980;-32
2023/10/26 09:43:11;;;;;;;;;;;11.40;99.90;;;;;;5110534;28;19931;-32
2023/10/26 09:45:38;;;;;;;;;;;11.40;99.90;;;;;;5093476;28;19924;-33
2023/10/26 09:48:05;;;;;;;;;;;11.40;99.90;;;;;;5092941;28;19923;-31
2023/10/26 09:50:38;;;;;;;;;;;11.40;99.90;;;;;;5093350;28;19962;-32
2023/10/26 09:53:04;;;;;;;;;;;11.50;99.90;;;;;;5090697;28;20032;-32
2023/10/26 09:55:31;;;;;;;;;;;11.50;99.90;;;;;;5110310;28;20375;-32
2023/10/26 09:58:00;;;;;;;;;;;11.50;99.90;;;;;;5091022;28;20779;-31
2023/10/26 10:00:31;;;;;;;;;;;11.50;99.90;;;;;;5106734;28;19968;-32
2023/10/26 10:03:10;;;;;;;;;;;11.50;99.90;;;;;;5091981;28;20014;-32
2023/10/26 10:05:37;;;;;;;;;;;11.50;99.90;;;;;;5092075;28;19963;-31
2023/10/26 10:08:04;;;;;;;;;;;11.60;99.90;;;;;;5110088;28;20294;-32
2023/10/26 10:10:30;;;;;;;;;;;11.50;99.90;;;;;;5092859;28;19978;-32
2023/10/26 10:12:57;;;;;;;;;;;11.50;99.90;;;;;;5110203;28;19976;-34
2023/10/26 10:15:35;;;;;;;;;;;11.50;99.90;;;;;;5089563;28;19928;-32
2023/10/26 10:18:02;;;;;;;;;;;11.50;99.90;;;;;;5091553;28;20371;-33
2023/10/26 10:20:29;;;;;;;;;;;11.50;99.90;;;;;;5104400;28;19928;-33
2023/10/26 10:22:58;;;;;;;;;;;11.50;99.90;;;;;;5109794;28;19967;-32
2023/10/26 10:25:40;;;;;;;;;;;11.50;99.90;;;;;;5091771;28;19947;-33
2023/10/26 10:28:09;;;;;;;;;;;11.40;99.90;;;;;;5092055;28;20212;-32
2023/10/26 10:30:50;;;;;;;;;;;11.50;99.90;;;;;;5092484;28;19989;-32
2023/10/26 10:33:21;;;;;;;;;;;11.60;99.90;;;;;;5106875;28;20026;-34
2023/10/26 10:35:50;;;;;;;;;;;11.70;99.90;;;;;;5109385;28;20030;-32
2023/10/26 10:38:20;;;;;;;;;;;11.70;99.90;;;;;;5090227;28;20224;-33
2023/10/26 10:41:06;;;;;;;;;;;11.70;99.90;;;;;;5075797;28;19993;-34
2023/10/26 10:43:33;;;;;;;;;;;11.70;99.90;;;;;;5091633;28;19927;-32
2023/10/26 10:46:10;;;;;;;;;;;11.70;99.90;;;;;;5091396;28;19964;-32
2023/10/26 10:48:37;;;;;;;;;;;11.60;99.90;;;;;;5094124;28;20392;-32
2023/10/26 10:51:03;;;;;;;;;;;11.70;99.90;;;;;;5095240;28;20321;-33
2023/10/26 10:53:31;;;;;;;;;;;11.70;99.90;;;;;;5095841;28;19924;-32
2023/10/26 10:55:59;;;;;;;;;;;11.70;99.90;;;;;;5113023;28;20287;-32
2023/10/26 10:58:26;;;;;;;;;;;11.80;99.90;;;;;;5094416;28;19930;-32
2023/10/26 11:00:52;;;;;;;;;;;11.90;99.90;;;;;;5094209;28;20427;-31
2023/10/26 11:03:20;;;;;;;;;;;12.00;99.90;;;;;;5094095;28;19928;-31
2023/10/26 11:05:47;;;;;;;;;;;12.10;99.90;;;;;;5096104;28;19924;-31
2023/10/26 11:08:14;;;;;;;;;;;12.10;99.90;;;;;;5112822;28;20341;-31
2023/10/26 11:10:40;;;;;;;;;;;12.10;99.90;;;;;;5112761;28;19927;-32
2023/10/26 11:13:07;;;;;;;;;;;12.30;99.90;;;;;;5112039;28;19966;-32
2023/10/26 11:15:34;;;;;;;;;;;12.40;99.90;;;;;;5094157;28;20634;-32
2023/10/26 11:18:00;;;;;;;;;;;12.50;99.90;;;;;;5095170;28;19931;-32
2023/10/26 11:20:36;;;;;;;;;;;12.40;99.90;;;;;;5109857;27;20376;-31
2023/10/26 11:23:03;;;;;;;;;;;12.40;99.90;;;;;;5107706;27;19939;-32
2023/10/26 11:25:29;;;;;;;;;;;12.50;99.90;;;;;;5081664;28;19924;-32
2023/10/26 11:27:56;;;;;;;;;;;12.70;99.90;;;;;;5107885;27;19927;-31
2023/10/26 11:30:23;;;;;;;;;;;12.70;99.90;;;;;;5093542;28;19924;-32
2023/10/26 11:32:49;;;;;;;;;;;12.70;99.90;;;;;;5103805;27;20322;-32
2023/10/26 11:35:16;;;;;;;;;;;12.80;99.90;;;;;;5099043;28;20284;-32
2023/10/26 11:37:44;;;;;;;;;;;12.90;99.90;;;;;;5084545;28;19988;-32
2023/10/26 11:40:12;;;;;;;;;;;13.00;99.90;;;;;;5102456;28;19923;-34
2023/10/26 11:42:48;;;;;;;;;;;13.10;99.90;;;;;;5083165;28;19928;-31
2023/10/26 11:45:15;;;;;;;;;;;13.20;99.90;;;;;;5075610;28;19923;-32
2023/10/26 11:47:46;;;;;;;;;;;13.20;99.90;;;;;;5107651;28;19928;-32
2023/10/26 11:50:38;;;;;;;;;;;13.20;99.90;;;;;;5110324;28;20140;-32
2023/10/26 11:53:06;;;;;;;;;;;13.20;99.90;;;;;;5105809;27;19924;-33
2023/10/26 11:55:33;;;;;;;;;;;13.30;99.90;;;;;;5110492;28;19935;-32
2023/10/26 11:58:00;;;;;;;;;;;13.50;99.90;;;;;;5098165;28;19924;-32
2023/10/26 12:00:27;;;;;;;;;;;13.50;99.90;;;;;;5090665;28;19924;-32
2023/10/26 12:02:54;;;;;;;;;;;13.60;99.90;;;;;;5104629;27;19927;-32
2023/10/26 12:05:21;;;;;;;;;;;13.70;99.90;;;;;;5088446;28;19924;-33
2023/10/26 12:07:48;;;;;;;;;;;13.80;99.90;;;;;;5111077;28;19924;-33
2023/10/26 12:10:16;;;;;;;;;;;13.80;99.90;;;;;;5092013;28;19931;-34
2023/10/26 12:12:43;;;;;;;;;;;13.90;99.90;;;;;;5106737;28;19931;-33
2023/10/26 12:15:10;;;;;;;;;;;13.90;99.90;;;;;;5084078;28;19924;-32
2023/10/26 12:17:36;;;;;;;;;;;14.10;99.90;;;;;;5100652;28;20543;-33
2023/10/26 12:20:03;;;;;;;;;;;14.20;99.90;;;;;;5096541;28;19939;-32
2023/10/26 12:22:30;;;;;;;;;;;14.10;99.90;;;;;;5105966;28;19924;-32
2023/10/26 12:24:57;;;;;;;;;;;14.20;99.90;;;;;;5096291;28;20295;-33
2023/10/26 12:27:25;;;;;;;;;;;14.20;99.90;;;;;;5102737;28;20332;-33
2023/10/26 12:29:52;;;;;;;;;;;14.20;99.90;;;;;;5102675;28;19924;-33
2023/10/26 12:32:19;;;;;;;;;;;14.20;99.90;;;;;;5092660;28;19923;-33
2023/10/26 12:34:46;;;;;;;;;;;14.10;99.90;;;;;;5088884;28;19927;-33
2023/10/26 12:37:13;;;;;;;;;;;14.00;99.90;;;;;;5081324;28;19923;-32
2023/10/26 12:39:39;;;;;;;;;;;14.00;99.90;;;;;;5111450;28;20341;-32
2023/10/26 12:42:06;;;;;;;;;;;13.90;99.90;;;;;;5083665;28;20407;-33
2023/10/26 12:44:34;;;;;;;;;;;13.80;99.90;;;;;;5096018;28;19970;-32
2023/10/26 12:47:01;;;;;;;;;;;13.80;99.90;;;;;;5092009;27;19925;-32
2023/10/26 12:49:27;;;;;;;;;;;13.80;99.90;;;;;;5060570;28;19924;-32
2023/10/26 12:51:54;;;;;;;;;;;13.80;99.90;;;;;;5071410;28;19932;-32
2023/10/26 12:54:21;;;;;;;;;;;13.80;99.90;;;;;;5088497;28;19932;-32
2023/10/26 12:56:47;;;;;;;;;;;13.90;99.90;;;;;;5085757;28;19924;-32
2023/10/26 12:59:14;;;;;;;;;;;13.90;99.90;;;;;;5067340;28;19928;-32
2023/10/26 13:01:42;;;;;;;;;;;13.80;99.90;;;;;;5071808;28;19927;-32
2023/10/26 13:04:08;;;;;;;;;;;13.80;99.90;;;;;;5091350;28;19924;-32
2023/10/26 13:06:36;;;;;;;;;;;13.80;99.90;;;;;;5089049;28;19932;-32
2023/10/26 13:20:45;;;;;;;;;;;14.20;99.90;;;;;;5077193;28;20018;-33
2023/10/26 13:23:12;;;;;;;;;;;14.30;99.90;;;;;;5085821;28;19969;-39
2023/10/26 13:25:38;;;;;;;;;;;14.30;99.90;;;;;;5079285;28;19982;-32
2023/10/26 13:28:05;;;;;;;;;;;14.20;99.90;;;;;;5074515;28;19925;-32
2023/10/26 13:30:32;;;;;;;;;;;14.10;99.90;;;;;;5086578;28;19967;-31
2023/10/26 13:33:00;;;;;;;;;;;14.10;99.90;;;;;;5052786;28;19932;-31
2023/10/26 13:35:29;;;;;;;;;;;14.00;99.90;;;;;;5058715;28;19975;-32
2023/10/26 13:37:56;;;;;;;;;;;14.00;99.90;;;;;;5080712;28;19924;-31
2023/10/26 13:40:22;;;;;;;;;;;14.00;99.90;;;;;;5064597;28;19970;-32
2023/10/26 13:42:50;;;;;;;;;;;13.90;99.90;;;;;;5076032;28;20388;-33
2023/10/26 13:45:17;;;;;;;;;;;13.90;99.90;;;;;;5070601;28;19924;-32
2023/10/26 13:47:43;;;;;;;;;;;13.90;99.90;;;;;;5070048;28;19924;-32
2023/10/26 13:50:11;;;;;;;;;;;13.90;99.90;;;;;;5078286;28;19924;-31
2023/10/26 13:52:38;;;;;;;;;;;13.90;99.90;;;;;;5110946;28;19924;-32
2023/10/26 13:55:05;;;;;;;;;;;13.80;99.90;;;;;;5085969;28;19984;-32
2023/10/26 13:57:32;;;;;;;;;;;13.80;99.90;;;;;;5083466;28;19923;-31
2023/10/26 13:59:58;;;;;;;;;;;13.70;99.90;;;;;;5080320;28;19924;-32
2023/10/26 14:02:26;;;;;;;;;;;13.60;99.90;;;;;;5077665;28;20031;-32
2023/10/26 14:04:52;;;;;;;;;;;13.50;99.90;;;;;;5106192;28;19924;-32
2023/10/26 14:07:20;;;;;;;;;;;13.40;99.90;;;;;;5075813;28;19924;-32
2023/10/26 14:09:47;;;;;;;;;;;13.40;99.90;;;;;;5103682;28;20394;-32
2023/10/26 14:12:14;;;;;;;;;;;13.40;99.90;;;;;;5093046;28;19928;-31
2023/10/26 14:14:41;;;;;;;;;;;13.30;99.90;;;;;;5095606;28;20380;-32
2023/10/26 14:17:07;;;;;;;;;;;13.40;99.90;;;;;;5085932;28;19928;-32
2023/10/26 14:19:34;;;;;;;;;;;13.30;99.90;;;;;;5092447;28;20061;-31
2023/10/26 14:22:03;;;;;;;;;;;13.40;99.90;;;;;;5085421;28;19923;-32
2023/10/26 14:24:31;;;;;;;;;;;13.40;99.90;;;;;;5081224;27;20127;-32
2023/10/26 14:26:58;;;;;;;;;;;13.40;99.90;;;;;;5097778;28;19924;-31
2023/10/26 14:29:24;;;;;;;;;;;13.40;99.90;;;;;;5112762;28;20381;-32
2023/10/26 14:31:51;;;;;;;;;;;13.40;99.90;;;;;;5084050;28;19970;-32
2023/10/26 14:34:17;;;;;;;;;;;13.50;99.90;;;;;;5083880;28;19944;-32
2023/10/26 14:36:44;;;;;;;;;;;13.50;99.90;;;;;;5102851;27;19997;-32